Time;durP1;ratioP1;P1;durP2;ratioP2;P2;SDS_P1;SDS_P2;PMS_P1;PMS_P2;Temp;Humidity;BMP_temperature;BMP_pressure;BME280_temperature;BME280_humidity;BME280_pressure;Samples;Min_cycle;Max_cycle;Signal;HPM_P1;HPM_P2
2022/10/21 00:01:26;;;;;;;5.00;2.40;;;;;;;;;;10196420;28;20084;-67
2022/10/21 00:06:24;;;;;;;4.95;2.40;;;;;;;;;;10210171;28;20060;-68
2022/10/21 00:11:23;;;;;;;6.85;2.50;;;;;;;;;;10197729;28;20088;-68
2022/10/21 00:16:24;;;;;;;5.93;2.63;;;;;;;;;;10196779;28;20069;-67
2022/10/21 00:21:22;;;;;;;4.95;2.33;;;;;;;;;;10197161;28;20065;-67
2022/10/21 00:26:21;;;;;;;7.47;2.35;;;;;;;;;;10197774;28;20073;-67
2022/10/21 00:31:19;;;;;;;7.50;2.53;;;;;;;;;;10227192;28;20074;-67
2022/10/21 00:36:19;;;;;;;4.80;2.70;;;;;;;;;;10193244;28;20552;-67
2022/10/21 00:41:18;;;;;;;5.97;3.08;;;;;;;;;;10196851;28;20065;-69
2022/10/21 00:46:17;;;;;;;2.95;2.22;;;;;;;;;;10197498;28;20096;-68
2022/10/21 00:51:17;;;;;;;5.72;2.88;;;;;;;;;;10192877;28;20081;-67
2022/10/21 00:56:19;;;;;;;3.63;2.55;;;;;;;;;;10196617;28;20073;-68
2022/10/21 01:01:18;;;;;;;5.40;3.15;;;;;;;;;;10194997;28;20072;-68
2022/10/21 01:06:19;;;;;;;6.30;2.33;;;;;;;;;;10193386;28;20076;-68
2022/10/21 01:11:19;;;;;;;6.60;2.45;;;;;;;;;;10195698;28;20080;-67
2022/10/21 01:16:20;;;;;;;9.38;2.60;;;;;;;;;;10196297;28;20088;-67
2022/10/21 01:21:27;;;;;;;6.88;2.47;;;;;;;;;;10204309;28;20495;-67
2022/10/21 01:26:37;;;;;;;4.72;2.22;;;;;;;;;;10195004;28;20562;-67
2022/10/21 01:31:38;;;;;;;4.30;2.40;;;;;;;;;;10194864;28;20498;-67
2022/10/21 01:36:39;;;;;;;6.30;2.47;;;;;;;;;;10195426;28;20472;-67
2022/10/21 01:41:40;;;;;;;10.73;2.88;;;;;;;;;;10194891;28;20080;-67
2022/10/21 01:46:42;;;;;;;2.97;2.70;;;;;;;;;;10194289;28;20053;-67
2022/10/21 01:51:40;;;;;;;5.53;2.80;;;;;;;;;;10195190;28;20077;-67
2022/10/21 01:56:39;;;;;;;6.05;2.40;;;;;;;;;;10194625;28;20554;-68
2022/10/21 02:01:38;;;;;;;3.58;2.00;;;;;;;;;;10194793;28;20084;-68
2022/10/21 02:06:38;;;;;;;5.10;3.03;;;;;;;;;;10194398;28;20065;-71
2022/10/21 02:11:38;;;;;;;4.18;2.80;;;;;;;;;;10194277;28;20077;-68
2022/10/21 02:16:38;;;;;;;2.60;2.40;;;;;;;;;;10210737;28;20050;-68
2022/10/21 02:21:37;;;;;;;3.72;2.83;;;;;;;;;;10201362;28;20112;-68
2022/10/21 02:26:36;;;;;;;2.97;2.50;;;;;;;;;;10201565;28;20073;-67
2022/10/21 02:31:44;;;;;;;3.80;2.40;;;;;;;;;;10202149;28;20073;-69
2022/10/21 02:36:48;;;;;;;3.22;2.17;;;;;;;;;;10201745;28;20080;-69
2022/10/21 02:41:47;;;;;;;7.85;3.10;;;;;;;;;;10200968;28;20479;-68
2022/10/21 02:46:47;;;;;;;13.80;3.15;;;;;;;;;;10200299;28;20089;-67
2022/10/21 02:51:47;;;;;;;5.45;3.10;;;;;;;;;;10201180;28;20204;-69
2022/10/21 02:56:45;;;;;;;2.75;1.85;;;;;;;;;;10200328;28;20076;-69
2022/10/21 03:01:43;;;;;;;6.55;2.95;;;;;;;;;;10201737;28;20069;-68
2022/10/21 03:06:41;;;;;;;10.93;5.40;;;;;;;;;;10199727;28;20066;-68
2022/10/21 03:11:41;;;;;;;5.20;2.10;;;;;;;;;;10215469;28;20045;-68
2022/10/21 03:16:40;;;;;;;3.53;3.17;;;;;;;;;;10200243;28;20111;-67
2022/10/21 03:21:38;;;;;;;8.68;5.60;;;;;;;;;;10197165;28;20063;-67
2022/10/21 03:26:38;;;;;;;5.60;3.03;;;;;;;;;;10196850;28;20070;-68
2022/10/21 03:31:39;;;;;;;3.00;2.33;;;;;;;;;;10197262;28;20085;-67
2022/10/21 03:36:37;;;;;;;6.03;2.38;;;;;;;;;;10197188;28;20483;-68
2022/10/21 03:41:35;;;;;;;4.88;2.45;;;;;;;;;;10197677;28;20108;-68
2022/10/21 03:46:33;;;;;;;5.03;2.20;;;;;;;;;;10197082;28;20076;-68
2022/10/21 03:51:33;;;;;;;3.63;2.78;;;;;;;;;;10197143;28;20081;-67
2022/10/21 03:56:32;;;;;;;7.18;3.45;;;;;;;;;;10197284;28;20080;-67
2022/10/21 04:01:30;;;;;;;5.13;3.00;;;;;;;;;;10206293;28;20065;-69
2022/10/21 04:06:29;;;;;;;5.13;3.35;;;;;;;;;;10203631;28;20070;-69
2022/10/21 04:11:28;;;;;;;4.90;2.67;;;;;;;;;;10201536;28;20065;-69
2022/10/21 04:16:26;;;;;;;7.75;3.15;;;;;;;;;;10203111;28;20065;-69
2022/10/21 04:21:25;;;;;;;6.68;3.28;;;;;;;;;;10195891;28;20073;-69
2022/10/21 04:26:23;;;;;;;11.40;3.63;;;;;;;;;;10198868;28;20092;-68
2022/10/21 04:31:22;;;;;;;12.05;3.08;;;;;;;;;;10191743;28;20061;-69
2022/10/21 04:36:25;;;;;;;37.80;23.95;;;;;;;;;;10191867;28;20061;-68
2022/10/21 04:41:23;;;;;;;19.33;7.90;;;;;;;;;;10194158;28;20503;-68
2022/10/21 04:46:23;;;;;;;84.60;61.33;;;;;;;;;;10191996;28;20073;-67
2022/10/21 04:51:21;;;;;;;21.38;13.27;;;;;;;;;;10194311;28;20077;-68
2022/10/21 04:56:19;;;;;;;7.93;5.45;;;;;;;;;;10201897;28;20073;-68
2022/10/21 05:01:18;;;;;;;5.25;3.47;;;;;;;;;;10212083;28;20455;-68
2022/10/21 05:06:17;;;;;;;8.27;5.95;;;;;;;;;;10234113;28;20522;-69
2022/10/21 05:11:15;;;;;;;15.88;10.45;;;;;;;;;;10232705;28;20491;-69
2022/10/21 05:16:14;;;;;;;12.05;9.32;;;;;;;;;;10232975;28;20093;-69
2022/10/21 05:21:12;;;;;;;19.38;7.03;;;;;;;;;;10215792;28;20534;-68
2022/10/21 05:26:14;;;;;;;5.22;4.47;;;;;;;;;;10205450;28;20440;-68
2022/10/21 05:31:12;;;;;;;12.27;6.95;;;;;;;;;;10197772;28;20088;-69
2022/10/21 05:36:11;;;;;;;21.58;14.23;;;;;;;;;;10213728;28;20075;-68
2022/10/21 05:41:09;;;;;;;15.27;7.65;;;;;;;;;;10225298;28;20065;-68
2022/10/21 05:46:09;;;;;;;6.05;2.95;;;;;;;;;;10232918;28;20065;-68
2022/10/21 05:51:08;;;;;;;4.28;2.88;;;;;;;;;;10235185;28;20080;-68
2022/10/21 05:56:07;;;;;;;5.57;3.47;;;;;;;;;;10240853;28;20076;-68
2022/10/21 06:01:05;;;;;;;7.25;3.38;;;;;;;;;;10237529;28;20046;-68
2022/10/21 06:06:06;;;;;;;8.02;4.63;;;;;;;;;;10239295;28;20071;-68
2022/10/21 06:11:05;;;;;;;10.13;5.72;;;;;;;;;;10215808;28;20538;-68
2022/10/21 06:16:04;;;;;;;18.33;12.38;;;;;;;;;;10207300;28;20082;-68
2022/10/21 06:21:09;;;;;;;9.38;4.97;;;;;;;;;;10211968;28;20069;-67
2022/10/21 06:26:08;;;;;;;5.57;4.25;;;;;;;;;;10208075;28;20085;-68
2022/10/21 06:31:07;;;;;;;5.95;3.88;;;;;;;;;;10231528;28;20072;-68
2022/10/21 06:36:05;;;;;;;6.78;3.88;;;;;;;;;;10237667;28;20501;-67
2022/10/21 06:41:06;;;;;;;5.45;4.18;;;;;;;;;;10239232;28;20045;-68
2022/10/21 06:46:11;;;;;;;10.85;3.83;;;;;;;;;;10217042;28;20068;-68
2022/10/21 06:51:10;;;;;;;6.60;3.05;;;;;;;;;;10212829;28;20478;-68
2022/10/21 06:56:10;;;;;;;4.10;3.38;;;;;;;;;;10227772;28;20080;-68
2022/10/21 07:01:09;;;;;;;13.82;6.75;;;;;;;;;;10237717;28;20045;-68
2022/10/21 07:06:27;;;;;;;10.65;6.57;;;;;;;;;;10237846;28;20072;-67
2022/10/21 07:11:28;;;;;;;8.68;5.90;;;;;;;;;;10238606;28;20076;-67
2022/10/21 07:16:27;;;;;;;8.77;5.45;;;;;;;;;;10238098;28;20076;-67
2022/10/21 07:21:26;;;;;;;4.88;3.83;;;;;;;;;;10236552;28;20057;-68
2022/10/21 07:26:25;;;;;;;5.78;3.30;;;;;;;;;;10237315;28;20038;-68
2022/10/21 07:31:24;;;;;;;5.75;3.38;;;;;;;;;;10237827;28;20495;-68
2022/10/21 07:36:23;;;;;;;8.35;3.40;;;;;;;;;;10235628;28;20537;-68
2022/10/21 07:41:23;;;;;;;5.80;3.35;;;;;;;;;;10236876;28;20053;-68
2022/10/21 07:46:21;;;;;;;6.43;3.50;;;;;;;;;;10237436;28;20054;-68
2022/10/21 07:51:22;;;;;;;9.68;3.67;;;;;;;;;;10213658;28;20518;-68
2022/10/21 07:56:28;;;;;;;7.93;3.75;;;;;;;;;;10208546;28;20096;-69
2022/10/21 08:01:27;;;;;;;8.77;3.42;;;;;;;;;;10231414;28;20072;-68
2022/10/21 08:06:27;;;;;;;11.07;2.75;;;;;;;;;;10236572;28;20246;-68
2022/10/21 08:11:26;;;;;;;9.70;3.75;;;;;;;;;;10236277;28;20073;-67
2022/10/21 08:16:25;;;;;;;5.03;3.80;;;;;;;;;;10235679;28;20133;-68
2022/10/21 08:21:23;;;;;;;16.77;9.38;;;;;;;;;;10212097;28;20050;-69
2022/10/21 08:26:23;;;;;;;8.30;2.97;;;;;;;;;;10207072;28;20508;-67
2022/10/21 08:31:21;;;;;;;5.43;2.88;;;;;;;;;;10206517;28;20069;-69
2022/10/21 08:36:21;;;;;;;11.65;3.97;;;;;;;;;;10205676;28;20080;-68
2022/10/21 08:41:39;;;;;;;6.85;3.72;;;;;;;;;;10206648;28;20088;-68
2022/10/21 08:46:41;;;;;;;6.43;3.70;;;;;;;;;;10199504;28;20070;-68
2022/10/21 08:51:41;;;;;;;4.28;2.53;;;;;;;;;;10205852;28;20088;-67
2022/10/21 08:56:39;;;;;;;3.30;2.70;;;;;;;;;;10205990;28;20069;-67
2022/10/21 09:01:45;;;;;;;9.02;2.83;;;;;;;;;;10226379;28;20041;-67
2022/10/21 09:06:50;;;;;;;4.65;2.75;;;;;;;;;;10207447;28;20076;-67
2022/10/21 09:11:53;;;;;;;7.75;3.75;;;;;;;;;;10205114;28;20457;-69
2022/10/21 09:16:58;;;;;;;5.30;2.90;;;;;;;;;;10217724;28;20164;-68
2022/10/21 09:22:01;;;;;;;5.13;2.97;;;;;;;;;;10211118;28;20073;-68
2022/10/21 09:27:21;;;;;;;6.65;2.72;;;;;;;;;;10199874;28;20105;-68
2022/10/21 09:32:32;;;;;;;7.25;3.40;;;;;;;;;;10210441;28;20077;-69
2022/10/21 09:37:33;;;;;;;6.57;3.00;;;;;;;;;;10205400;28;20081;-69
2022/10/21 09:42:32;;;;;;;4.35;2.53;;;;;;;;;;10204350;28;20062;-68
2022/10/21 09:47:47;;;;;;;6.35;3.28;;;;;;;;;;10205829;28;20150;-68
2022/10/21 09:52:48;;;;;;;6.72;3.72;;;;;;;;;;10229584;28;20451;-68
2022/10/21 09:57:51;;;;;;;13.93;6.80;;;;;;;;;;10227534;28;20065;-68
2022/10/21 10:02:51;;;;;;;19.40;12.15;;;;;;;;;;10209043;28;20080;-69
2022/10/21 10:07:49;;;;;;;19.77;15.35;;;;;;;;;;10208731;28;20089;-69
2022/10/21 10:12:55;;;;;;;11.48;5.55;;;;;;;;;;10205617;28;20522;-69
2022/10/21 10:17:56;;;;;;;5.15;3.78;;;;;;;;;;10199255;28;20073;-68
2022/10/21 10:23:09;;;;;;;17.85;5.50;;;;;;;;;;10211068;28;20080;-68
2022/10/21 10:28:17;;;;;;;15.85;7.82;;;;;;;;;;10201403;28;20068;-69
2022/10/21 10:33:19;;;;;;;9.57;3.67;;;;;;;;;;10213541;28;20070;-69
2022/10/21 10:38:23;;;;;;;13.88;7.30;;;;;;;;;;10198087;28;20069;-69
2022/10/21 10:43:24;;;;;;;5.17;3.80;;;;;;;;;;10199523;28;20081;-68
2022/10/21 10:48:25;;;;;;;8.57;4.22;;;;;;;;;;10198705;28;20132;-68
2022/10/21 10:53:30;;;;;;;8.45;3.38;;;;;;;;;;10194832;28;20070;-68
2022/10/21 10:58:31;;;;;;;15.63;4.88;;;;;;;;;;10191639;28;20069;-67
2022/10/21 11:03:34;;;;;;;7.68;4.00;;;;;;;;;;10210638;28;20078;-68
2022/10/21 11:08:41;;;;;;;10.57;7.70;;;;;;;;;;10197388;28;20057;-67
2022/10/21 11:13:40;;;;;;;11.43;7.38;;;;;;;;;;10199596;28;20089;-67
2022/10/21 11:18:46;;;;;;;15.43;5.30;;;;;;;;;;10204475;28;20507;-68
2022/10/21 11:24:02;;;;;;;10.93;4.63;;;;;;;;;;10199505;28;20088;-68
2022/10/21 11:29:04;;;;;;;12.18;4.88;;;;;;;;;;10198174;28;20077;-68
2022/10/21 11:34:10;;;;;;;9.90;5.72;;;;;;;;;;10198525;28;20118;-68
2022/10/21 11:39:20;;;;;;;12.45;3.85;;;;;;;;;;10197564;28;20498;-69
2022/10/21 11:44:21;;;;;;;5.88;3.75;;;;;;;;;;10197505;28;20062;-69
2022/10/21 11:49:33;;;;;;;10.07;4.30;;;;;;;;;;10200139;28;20108;-69
2022/10/21 11:54:42;;;;;;;14.70;5.28;;;;;;;;;;10198344;28;20077;-68
2022/10/21 12:00:03;;;;;;;8.40;3.90;;;;;;;;;;10199774;28;20084;-67
2022/10/21 12:05:08;;;;;;;13.02;3.92;;;;;;;;;;10206416;28;20491;-69
2022/10/21 12:10:11;;;;;;;9.88;4.53;;;;;;;;;;10196635;28;20591;-69
2022/10/21 12:15:13;;;;;;;9.68;4.43;;;;;;;;;;10200166;28;20045;-68
2022/10/21 12:20:16;;;;;;;10.27;5.13;;;;;;;;;;10197256;28;20079;-68
2022/10/21 12:25:24;;;;;;;8.70;4.30;;;;;;;;;;10200065;28;20073;-69
2022/10/21 12:30:24;;;;;;;7.32;3.97;;;;;;;;;;10199435;28;20076;-69
2022/10/21 12:35:28;;;;;;;8.48;4.00;;;;;;;;;;10196265;28;20072;-68
2022/10/21 12:40:37;;;;;;;5.75;3.65;;;;;;;;;;10195238;28;20073;-68
2022/10/21 12:45:36;;;;;;;14.50;4.03;;;;;;;;;;10196038;28;20041;-69
2022/10/21 12:50:36;;;;;;;9.70;3.90;;;;;;;;;;10196525;28;20073;-69
2022/10/21 12:55:38;;;;;;;10.13;4.30;;;;;;;;;;10197814;28;20069;-68
2022/10/21 13:00:56;;;;;;;7.63;5.03;;;;;;;;;;10194732;28;20099;-69
2022/10/21 13:06:01;;;;;;;12.27;6.68;;;;;;;;;;10196278;28;20069;-69
2022/10/21 13:11:12;;;;;;;13.38;4.65;;;;;;;;;;10203148;28;20069;-69
2022/10/21 13:16:33;;;;;;;16.35;8.52;;;;;;;;;;10194165;28;20070;-68
2022/10/21 13:21:40;;;;;;;12.68;5.32;;;;;;;;;;10193019;28;20081;-69
2022/10/21 13:26:40;;;;;;;54.35;32.60;;;;;;;;;;10192455;28;20075;-68
2022/10/21 13:31:38;;;;;;;51.00;38.65;;;;;;;;;;10192909;28;20118;-68
2022/10/21 13:36:38;;;;;;;14.57;7.80;;;;;;;;;;10192051;28;20078;-69
2022/10/21 13:41:38;;;;;;;17.35;13.88;;;;;;;;;;10194441;28;20077;-69
2022/10/21 13:46:37;;;;;;;27.08;13.38;;;;;;;;;;10195320;28;20084;-69
2022/10/21 13:51:44;;;;;;;12.77;8.77;;;;;;;;;;10194268;28;20073;-68
2022/10/21 13:56:44;;;;;;;10.10;5.60;;;;;;;;;;10193015;28;20141;-69
2022/10/21 14:01:46;;;;;;;15.93;6.30;;;;;;;;;;10193789;28;20061;-69
2022/10/21 14:06:46;;;;;;;12.95;4.82;;;;;;;;;;10193073;28;20065;-68
2022/10/21 14:11:49;;;;;;;7.80;5.97;;;;;;;;;;10194319;28;20084;-68
2022/10/21 14:16:49;;;;;;;24.55;12.70;;;;;;;;;;10199366;28;20062;-68
2022/10/21 14:21:49;;;;;;;29.92;18.80;;;;;;;;;;10196338;28;20074;-67
2022/10/21 14:26:50;;;;;;;72.53;34.25;;;;;;;;;;10199072;28;20314;-68
2022/10/21 14:31:48;;;;;;;66.85;30.55;;;;;;;;;;10197645;28;20472;-67
2022/10/21 14:36:59;;;;;;;69.25;33.22;;;;;;;;;;10196755;28;20065;-67
2022/10/21 14:42:03;;;;;;;83.10;37.53;;;;;;;;;;10195570;28;20066;-67
2022/10/21 14:47:01;;;;;;;27.43;15.70;;;;;;;;;;10195899;28;20073;-66
2022/10/21 14:52:01;;;;;;;15.98;8.48;;;;;;;;;;10197581;28;20739;-67
2022/10/21 14:57:00;;;;;;;31.55;21.40;;;;;;;;;;10210415;28;20077;-67
2022/10/21 15:02:00;;;;;;;25.58;15.45;;;;;;;;;;10196307;28;20515;-68
2022/10/21 15:06:59;;;;;;;34.13;22.63;;;;;;;;;;10200013;28;20069;-67
2022/10/21 15:12:12;;;;;;;36.88;27.52;;;;;;;;;;10192976;28;20282;-68
2022/10/21 15:17:15;;;;;;;11.85;7.22;;;;;;;;;;10211703;28;20104;-69
2022/10/21 15:22:24;;;;;;;11.52;5.47;;;;;;;;;;10199098;28;20070;-69
2022/10/21 15:27:26;;;;;;;14.95;6.30;;;;;;;;;;10196784;28;20478;-67
2022/10/21 15:32:25;;;;;;;24.48;7.68;;;;;;;;;;10203502;28;20069;-68
2022/10/21 15:37:27;;;;;;;20.95;8.38;;;;;;;;;;10197062;28;20073;-68
2022/10/21 15:42:25;;;;;;;13.77;8.02;;;;;;;;;;10193556;28;20084;-66
2022/10/21 15:47:24;;;;;;;14.65;8.80;;;;;;;;;;10198870;28;20514;-67
2022/10/21 15:52:23;;;;;;;17.27;9.60;;;;;;;;;;10204756;28;20149;-67
2022/10/21 15:57:23;;;;;;;15.02;10.90;;;;;;;;;;10199942;28;20076;-69
2022/10/21 16:02:21;;;;;;;18.65;10.75;;;;;;;;;;10212729;28;20422;-70
2022/10/21 16:07:20;;;;;;;12.25;7.20;;;;;;;;;;10201107;28;20074;-68
2022/10/21 16:12:20;;;;;;;19.33;8.35;;;;;;;;;;10198281;28;20669;-68
2022/10/21 16:17:19;;;;;;;13.57;8.32;;;;;;;;;;10193315;28;20100;-68
2022/10/21 16:22:18;;;;;;;12.18;8.02;;;;;;;;;;10202243;28;20080;-68
2022/10/21 16:27:17;;;;;;;13.05;11.60;;;;;;;;;;10219942;28;20073;-68
2022/10/21 16:32:36;;;;;;;17.23;9.27;;;;;;;;;;10226454;28;20053;-70
2022/10/21 16:37:35;;;;;;;9.27;6.32;;;;;;;;;;10211330;28;20069;-70
2022/10/21 16:42:34;;;;;;;14.07;6.20;;;;;;;;;;10202499;28;20077;-70
2022/10/21 16:47:32;;;;;;;12.40;5.82;;;;;;;;;;10200536;28;20069;-70
2022/10/21 16:52:33;;;;;;;12.07;7.57;;;;;;;;;;10202126;28;20534;-69
2022/10/21 16:57:31;;;;;;;21.85;8.20;;;;;;;;;;10206563;28;20088;-70
2022/10/21 17:02:30;;;;;;;14.77;8.25;;;;;;;;;;10203246;28;20681;-68
2022/10/21 17:07:29;;;;;;;13.02;7.88;;;;;;;;;;10196038;28;20705;-69
2022/10/21 17:12:31;;;;;;;9.88;6.15;;;;;;;;;;10204970;28;20089;-68
2022/10/21 17:17:29;;;;;;;8.25;5.80;;;;;;;;;;10205010;28;20537;-69
2022/10/21 17:22:28;;;;;;;9.73;6.20;;;;;;;;;;10199535;28;20156;-69
2022/10/21 17:27:26;;;;;;;10.00;5.38;;;;;;;;;;10206879;28;20061;-69
2022/10/21 17:32:26;;;;;;;7.50;4.80;;;;;;;;;;10206155;28;20080;-67
2022/10/21 17:37:24;;;;;;;8.07;3.92;;;;;;;;;;10209202;28;20391;-68
2022/10/21 17:42:22;;;;;;;14.23;5.03;;;;;;;;;;10195994;28;20443;-69
2022/10/21 17:47:20;;;;;;;10.30;5.25;;;;;;;;;;10223873;28;20072;-68
2022/10/21 17:52:20;;;;;;;8.55;4.93;;;;;;;;;;10228387;28;20076;-69
2022/10/21 17:57:18;;;;;;;11.05;5.15;;;;;;;;;;10227335;28;20455;-69
2022/10/21 18:02:16;;;;;;;6.63;4.50;;;;;;;;;;10222163;28;20076;-68
2022/10/21 18:07:14;;;;;;;8.55;4.35;;;;;;;;;;10221408;28;20070;-68
2022/10/21 18:12:16;;;;;;;8.98;4.90;;;;;;;;;;10212449;28;20084;-69
2022/10/21 18:17:14;;;;;;;9.27;4.65;;;;;;;;;;10218133;28;20069;-69
2022/10/21 18:22:13;;;;;;;7.72;5.18;;;;;;;;;;10203849;28;20058;-68
2022/10/21 18:27:11;;;;;;;7.80;4.80;;;;;;;;;;10205984;28;20197;-69
2022/10/21 18:32:11;;;;;;;8.13;4.57;;;;;;;;;;10202006;28;20072;-69
2022/10/21 18:37:11;;;;;;;7.43;3.70;;;;;;;;;;10201097;28;20053;-68
2022/10/21 18:42:10;;;;;;;5.68;4.75;;;;;;;;;;10214516;28;20095;-68
2022/10/21 18:47:08;;;;;;;13.57;9.85;;;;;;;;;;10198612;28;20154;-69
2022/10/21 18:52:10;;;;;;;6.93;4.93;;;;;;;;;;10199783;28;20084;-69
2022/10/21 18:57:11;;;;;;;16.52;10.10;;;;;;;;;;10200301;28;20080;-69
2022/10/21 19:02:10;;;;;;;21.17;9.90;;;;;;;;;;10205169;28;20077;-69
2022/10/21 19:07:13;;;;;;;14.82;8.25;;;;;;;;;;10203568;28;20072;-68
2022/10/21 19:12:11;;;;;;;14.88;8.63;;;;;;;;;;10200986;28;20507;-69
2022/10/21 19:17:15;;;;;;;10.50;7.67;;;;;;;;;;10199877;28;20066;-69
2022/10/21 19:22:16;;;;;;;10.32;5.75;;;;;;;;;;10203735;28;20482;-68
2022/10/21 19:27:14;;;;;;;9.57;5.20;;;;;;;;;;10202774;28;20491;-69
2022/10/21 19:32:14;;;;;;;13.38;5.43;;;;;;;;;;10210482;28;20076;-69
2022/10/21 19:37:12;;;;;;;10.55;4.85;;;;;;;;;;10198436;28;20065;-69
2022/10/21 19:42:12;;;;;;;8.07;4.40;;;;;;;;;;10223645;28;20084;-69
2022/10/21 19:47:10;;;;;;;9.40;5.85;;;;;;;;;;10222953;28;20423;-70
2022/10/21 19:52:08;;;;;;;7.07;4.30;;;;;;;;;;10227567;28;20077;-69
2022/10/21 19:57:06;;;;;;;6.75;4.65;;;;;;;;;;10225900;28;20069;-69
2022/10/21 20:02:06;;;;;;;6.30;4.45;;;;;;;;;;10233437;28;20093;-70
2022/10/21 20:07:05;;;;;;;11.82;4.20;;;;;;;;;;10235453;28;20037;-70
2022/10/21 20:12:03;;;;;;;5.55;4.45;;;;;;;;;;10234728;28;20045;-69
2022/10/21 20:17:01;;;;;;;5.32;3.90;;;;;;;;;;10220187;28;20079;-68
2022/10/21 20:22:01;;;;;;;11.30;3.95;;;;;;;;;;10227736;28;20077;-68
2022/10/21 20:26:59;;;;;;;7.07;4.03;;;;;;;;;;10228541;28;20065;-69
2022/10/21 20:31:59;;;;;;;6.13;4.30;;;;;;;;;;10233713;28;20065;-69
2022/10/21 20:37:01;;;;;;;5.28;3.70;;;;;;;;;;10233687;28;20080;-69
2022/10/21 20:41:59;;;;;;;7.78;4.78;;;;;;;;;;10228455;28;20503;-68
2022/10/21 20:46:57;;;;;;;6.22;4.30;;;;;;;;;;10226570;28;20084;-69
2022/10/21 20:51:55;;;;;;;10.38;5.15;;;;;;;;;;10226357;28;20080;-69
2022/10/21 20:56:55;;;;;;;6.95;4.35;;;;;;;;;;10227315;28;20073;-69
2022/10/21 21:01:53;;;;;;;4.88;3.90;;;;;;;;;;10227711;28;20081;-69
2022/10/21 21:06:52;;;;;;;6.68;4.80;;;;;;;;;;10232969;28;20077;-68
2022/10/21 21:11:50;;;;;;;7.68;4.50;;;;;;;;;;10230365;28;20499;-69
2022/10/21 21:16:50;;;;;;;5.82;4.00;;;;;;;;;;10226289;28;20080;-69
2022/10/21 21:21:48;;;;;;;5.85;3.97;;;;;;;;;;10231991;28;20468;-70
2022/10/21 21:26:46;;;;;;;5.22;3.90;;;;;;;;;;10230109;28;20076;-69
2022/10/21 21:31:44;;;;;;;8.65;4.95;;;;;;;;;;10238645;28;20073;-68
2022/10/21 21:36:44;;;;;;;7.82;5.72;;;;;;;;;;10240642;28;20037;-68
2022/10/21 21:41:44;;;;;;;6.18;4.53;;;;;;;;;;10218496;28;20514;-68
2022/10/21 21:46:42;;;;;;;5.38;4.30;;;;;;;;;;10208415;28;20080;-68
2022/10/21 21:51:40;;;;;;;6.15;4.13;;;;;;;;;;10201374;28;20073;-68
2022/10/21 21:56:40;;;;;;;5.03;4.57;;;;;;;;;;10201439;28;20073;-69
2022/10/21 22:01:38;;;;;;;7.30;4.88;;;;;;;;;;10205414;28;20081;-68
2022/10/21 22:06:37;;;;;;;11.98;5.18;;;;;;;;;;10199753;28;20077;-69
2022/10/21 22:11:35;;;;;;;7.78;5.15;;;;;;;;;;10201452;28;20076;-69
2022/10/21 22:16:35;;;;;;;5.93;4.28;;;;;;;;;;10202720;28;20128;-69
2022/10/21 22:21:33;;;;;;;6.10;4.25;;;;;;;;;;10201084;28;20070;-68
2022/10/21 22:26:31;;;;;;;7.75;4.10;;;;;;;;;;10199175;28;20042;-68
2022/10/21 22:31:30;;;;;;;9.50;4.10;;;;;;;;;;10200144;28;20073;-68
2022/10/21 22:36:29;;;;;;;5.30;4.30;;;;;;;;;;10201223;28;20080;-68
2022/10/21 22:41:27;;;;;;;6.88;4.38;;;;;;;;;;10200787;28;20080;-67
2022/10/21 22:46:26;;;;;;;6.93;4.53;;;;;;;;;;10201143;28;20092;-67
2022/10/21 22:51:33;;;;;;;8.02;4.35;;;;;;;;;;10199662;28;20475;-68
2022/10/21 22:56:32;;;;;;;8.00;5.07;;;;;;;;;;10207039;28;20076;-69
2022/10/21 23:01:31;;;;;;;9.30;4.18;;;;;;;;;;10202623;28;20719;-69
2022/10/21 23:06:29;;;;;;;6.72;4.75;;;;;;;;;;10198645;28;20080;-68
2022/10/21 23:11:29;;;;;;;6.00;5.25;;;;;;;;;;10198688;28;20069;-69
2022/10/21 23:16:27;;;;;;;5.78;4.85;;;;;;;;;;10196871;28;20448;-69
2022/10/21 23:21:26;;;;;;;6.32;4.40;;;;;;;;;;10201764;28;20084;-70
2022/10/21 23:26:24;;;;;;;15.27;5.47;;;;;;;;;;10199135;28;20073;-69
2022/10/21 23:31:23;;;;;;;7.45;5.00;;;;;;;;;;10199533;28;20095;-69
2022/10/21 23:36:22;;;;;;;9.25;4.82;;;;;;;;;;10197078;28;20423;-69
2022/10/21 23:41:20;;;;;;;12.25;6.72;;;;;;;;;;10198474;28;20077;-69
2022/10/21 23:46:18;;;;;;;6.97;4.70;;;;;;;;;;10197401;28;20134;-69
2022/10/21 23:51:18;;;;;;;11.48;6.00;;;;;;;;;;10197936;28;20080;-68
2022/10/21 23:56:16;;;;;;;13.65;8.07;;;;;;;;;;10198276;28;20050;-68
